map of HRT home
HRT - Airport
Location
City:  Linton-on-Ouse, Yorkshire, England, United Kingdom
Near (Alt.):Harrogate
Name:RAF Linton-on-Ouse
ICAO:EGXU
IATA:HRT

Details
Type:Airport (Aerodrome, Airfield)
Latitude:5402'56"N (54.048911)
Longitude:115'10"W (-1.252746)
Datum:WGS 1984
Elevation:53 ft (16 m)
Variation:0.83W (WMM2015v2 magnetic declination)
0.20 annual change
Runways:2
Longest:6020 × 150 ft (1835 × 45.5 m), paved

Time
Time Zone:UTC+0 (DST+1)
Local Time:

Weather
METAR:EGXU 041350Z 30010KT 9999 FEW028 10/02 Q1013 BLU NOSIG

Related Locations
Nearby:
Farthest:NZBA: 11763 mi / 18930 km
Balclutha, OTA, NZ

Find:

   beyond  
but within

Other Information
Maps:
NOTAMs:
Links:
Sources:

  
  • flag of United Kingdom
  • flag of England
  • flag of Royal Air Force
  

Sectional Chart

Flight Planning
at skyvector.com

Satellite Image

Google Maps Satellite view

 

Copyright © 2004-2019 Karl L. Swartz. All rights reserved.
The Great Circle Mapper name and logo are trademarks of the Great Circle Mapper.
All other trademarks mentioned herein belong to their respective owners.
Please see credits for attibutions and further copyright information.

  Follow gcmap on Facebook Follow gcmap on Twitter GCmap on LinkedIn

hCard Microformat

Geo Microformat